EmailTwitter


Surface observations / Europe / LIRF (16242)

Regions: Quebec | Canada | USA | Europe | France | UK | Elsewhere
Station
Display
Info & Location for LIRF (16242) | Help decoding METAR

Weather Conditions observed on 2019/01/20 at 18:20 UTC (LIRF)

Sky conditions: partly cloudy.

Obstruction(s) to Vision: moderate rain.

Temperature: 8.0 Celsius.

Dewpoint: 6.0 Celsius.

Relative Humidity: 87%

Winds: Variable at 6 km/h or 3 knots.

Mean Sea level Pressure: 101.20 kilopascals.

Horizontal visibility: 6.21 statute miles or 9.94 kilometers.

Height of the Ceiling: 1219 metres ( 4000 feet ).

Coded METAR:

LIRF 201820Z VRB03KT 9999 RA FEW030 BKN040 08/06 Q1012 NOSIG=